หน้าหลัก
METAR-TAF:

METAR-TAF

ท่าอากาศยาน :

Odessa-Schlemeyer Field

Odessa, เทกซัส, สหรัฐอเมริกา

ละติจูด: 31-55-17N, ลองจิจูด: 102-23-30W, ความสูง: 914 ม.

การสังเกตสภาพอากาศปัจจุบัน

รายงานได้ทำขึ้นเมื่อ 44 นาทีที่แล้ว ณ เวลา 04:53 UTC
ลม 7 นอตจากตะวันตก
อุณหภูมิ 29°C
ความชื้น 8%
ความกดอากาศ 1008 hPa
ทัศนวิสัย: 16.1 กม.
มีเมฆเป็นส่วนมากเว้นเป็นระยะที่ความสูง 3900 ฟุต

METAR: KODO 260453Z AUTO 27007KT 10SM BKN039 29/M08 A2978 RMK AO2 SLP029 T02891078

เวลา: 00:37 (05:37 UTC)


TAF: หายไป

สังเกตการณ์สภาพอากาศและพยากรณ์อากาศของสนามบินมากกว่า 4000 แห่ง (รายงาน METAR และ TAF).

สถานีที่ดูได้จะแสดงไว้ด้วยจุดสีเหลืองและสีแดงบนแผนที่.

เลื่อนเมาส์ไปเหนือจุดเพื่อดูชื่อสถานี.

แล้วคลิกเพื่อดูสังเกตการณ์และการพยากรณ์สภาพอากาศ.

ในการเปลี่ยนแผนที่: คลิกที่ปุ่มสีเขียวที่มีกากบาทสีดำเพื่อซูมเข้า; ที่ปุ่มสีเขียวที่มีขีดเพื่อซูมออก; หรือที่ลูกศรสีเขียวเพื่อไปยังแผนที่ที่อยู่ติดกัน.


METAR-TAF: